PWSweather.com
Personal Weather Stations
Station Observations
TARRYHILL
Tarrytown, NY 10591

Tarrytown, NY 10591

Lat: 41.05185, Lon: -73.85296

Elevation: 341

Station Type: Davis Vantage Vue

Latest ConditionsUpdated 7:40:16 AM EDT Tuesday, Apr 28, 2015
Currently Today's Max Today's Min Today's Average
Temperature 49.4°F9.7°C 49.4°F9.7°C 47.5°F8.6°C 48.7°F9.3°C
Dew Point 38.9°F3.8°C 41.4°F5.2°C 38.6°F3.7°C 40.0°F4.4°C
Winds 3.9 mph NW6.3 kmh NW 5.4 mph NNE8.7 kmh NNE - 2.7 mph 4.3 kmh
Wind Gusts 8.0 mph12.9 kmh 14.0 mph22.5 kmh - -
Humidity 67% 75% 67% 72%
Pressure 29.79 in1008.8 mb 29.79 in1008.8 mb 29.72 in1006.4 mb -
Hour Temp Dew Point Humidity Winds Wind Gusts Pressure Precip Precip Rate Daily Precip Total
07:40 AM 49.4°F9.7°C 38.9°F3.8°C 67% 3.9 mph NW6.3 kmh NW 8.0 mph12.9 kmh 29.79 in1008.8 mb - 0.00 in0.0 mm 0.00 in0.0 mm
07:30 AM 49.1°F9.5°C 38.6°F3.7°C 67% 4.6 mph N7.4 kmh N 9.0 mph14.5 kmh 29.79 in1008.8 mb - 0.00 in0.0 mm 0.00 in0.0 mm
07:20 AM 48.8°F9.3°C 38.7°F3.7°C 68% 4.6 mph NW7.4 kmh NW 8.0 mph12.9 kmh 29.79 in1008.8 mb - 0.00 in0.0 mm 0.00 in0.0 mm
07:10 AM 48.7°F9.3°C 39.0°F3.9°C 69% 1.8 mph NW2.9 kmh NW 3.0 mph4.8 kmh 29.79 in1008.8 mb - 0.00 in0.0 mm 0.00 in0.0 mm
07:00 AM 48.6°F9.2°C 38.9°F3.8°C 69% 3.2 mph N5.1 kmh N 11.0 mph17.7 kmh 29.79 in1008.8 mb - 0.00 in0.0 mm 0.00 in0.0 mm
06:50 AM 48.4°F9.1°C 38.7°F3.7°C 69% 3.2 mph NW5.1 kmh NW 5.0 mph8.0 kmh 29.78 in1008.5 mb - 0.00 in0.0 mm 0.00 in0.0 mm
06:40 AM 48.3°F9.1°C 39.0°F3.9°C 70% 5.0 mph NW8.0 kmh NW 14.0 mph22.5 kmh 29.78 in1008.5 mb - 0.00 in0.0 mm 0.00 in0.0 mm
06:30 AM 48.1°F8.9°C 38.8°F3.8°C 70% 2.1 mph NE3.4 kmh NE 5.0 mph8.0 kmh 29.77 in1008.1 mb - 0.00 in0.0 mm 0.00 in0.0 mm
06:20 AM 47.8°F8.8°C 38.8°F3.8°C 71% 3.1 mph N5.0 kmh N 10.0 mph16.1 kmh 29.77 in1008.1 mb - 0.00 in0.0 mm 0.00 in0.0 mm
06:10 AM 47.8°F8.8°C 38.8°F3.8°C 71% 1.8 mph N2.9 kmh N 4.0 mph6.4 kmh 29.77 in1008.1 mb - 0.00 in0.0 mm 0.00 in0.0 mm
06:00 AM 47.5°F8.6°C 38.9°F3.8°C 72% 2.7 mph WNW4.3 kmh WNW 5.0 mph8.0 kmh 29.77 in1008.1 mb - 0.00 in0.0 mm 0.00 in0.0 mm
05:50 AM 47.9°F8.8°C 39.3°F4.1°C 72% 1.2 mph NNW1.9 kmh NNW 3.0 mph4.8 kmh 29.76 in1007.8 mb - 0.00 in0.0 mm 0.00 in0.0 mm
05:40 AM 47.9°F8.8°C 39.3°F4.1°C 72% 2.4 mph NW3.9 kmh NW 5.0 mph8.0 kmh 29.76 in1007.8 mb - 0.00 in0.0 mm 0.00 in0.0 mm
05:30 AM 47.9°F8.8°C 39.3°F4.1°C 72% 0.9 mph NW1.4 kmh NW 5.0 mph8.0 kmh 29.76 in1007.8 mb - 0.00 in0.0 mm 0.00 in0.0 mm
05:20 AM 48.1°F8.9°C 39.5°F4.2°C 72% 4.2 mph WNW6.8 kmh WNW 11.0 mph17.7 kmh 29.75 in1007.5 mb - 0.00 in0.0 mm 0.00 in0.0 mm
05:10 AM 48.3°F9.1°C 39.3°F4.1°C 71% 4.4 mph N7.1 kmh N 8.0 mph12.9 kmh 29.75 in1007.5 mb - 0.00 in0.0 mm 0.00 in0.0 mm
05:00 AM 48.4°F9.1°C 39.4°F4.1°C 71% 5.3 mph NW8.5 kmh NW 11.0 mph17.7 kmh 29.75 in1007.5 mb - 0.00 in0.0 mm 0.00 in0.0 mm
04:50 AM 48.7°F9.3°C 39.4°F4.1°C 70% 5.0 mph NW8.0 kmh NW 10.0 mph16.1 kmh 29.74 in1007.1 mb - 0.00 in0.0 mm 0.00 in0.0 mm
04:40 AM 48.8°F9.3°C 39.4°F4.1°C 70% 4.7 mph NW7.6 kmh NW 8.0 mph12.9 kmh 29.74 in1007.1 mb - 0.00 in0.0 mm 0.00 in0.0 mm
04:30 AM 49.0°F9.4°C 39.7°F4.3°C 70% 3.0 mph NW4.8 kmh NW 9.0 mph14.5 kmh 29.74 in1007.1 mb - 0.00 in0.0 mm 0.00 in0.0 mm
04:20 AM 49.1°F9.5°C 39.7°F4.3°C 70% 4.5 mph NW7.2 kmh NW 11.0 mph17.7 kmh 29.73 in1006.8 mb - 0.00 in0.0 mm 0.00 in0.0 mm
04:10 AM 49.0°F9.4°C 39.6°F4.2°C 70% 5.4 mph NNE8.7 kmh NNE 8.0 mph12.9 kmh 29.73 in1006.8 mb - 0.00 in0.0 mm 0.00 in0.0 mm
04:00 AM 48.9°F9.4°C 39.9°F4.4°C 71% 3.4 mph NW5.5 kmh NW 5.0 mph8.0 kmh 29.73 in1006.8 mb - 0.00 in0.0 mm 0.00 in0.0 mm
03:50 AM 48.9°F9.4°C 40.6°F4.8°C 73% 3.2 mph NNW5.1 kmh NNW 6.0 mph9.7 kmh 29.73 in1006.8 mb - 0.00 in0.0 mm 0.00 in0.0 mm
03:40 AM 49.0°F9.4°C 41.4°F5.2°C 75% 2.6 mph WNW4.2 kmh WNW 6.0 mph9.7 kmh 29.73 in1006.8 mb - 0.00 in0.0 mm 0.00 in0.0 mm
03:30 AM 49.0°F9.4°C 41.1°F5.1°C 74% 1.8 mph NW2.9 kmh NW 5.0 mph8.0 kmh 29.72 in1006.4 mb - 0.00 in0.0 mm 0.00 in0.0 mm
03:20 AM 49.1°F9.5°C 41.2°F5.1°C 74% 1.4 mph NNE2.3 kmh NNE 3.0 mph4.8 kmh 29.72 in1006.4 mb - 0.00 in0.0 mm 0.00 in0.0 mm
03:10 AM 49.1°F9.5°C 41.2°F5.1°C 74% 2.1 mph NNW3.4 kmh NNW 3.0 mph4.8 kmh 29.72 in1006.4 mb - 0.00 in0.0 mm 0.00 in0.0 mm
03:00 AM 48.9°F9.4°C 41.0°F5.0°C 74% 2.7 mph NW4.3 kmh NW 7.0 mph11.3 kmh 29.72 in1006.4 mb - 0.00 in0.0 mm 0.00 in0.0 mm
02:50 AM 48.8°F9.3°C 40.9°F4.9°C 74% 2.2 mph ENE3.5 kmh ENE 3.0 mph4.8 kmh 29.72 in1006.4 mb - 0.00 in0.0 mm 0.00 in0.0 mm
02:40 AM 48.7°F9.3°C 40.8°F4.9°C 74% 1.6 mph NNW2.6 kmh NNW 3.0 mph4.8 kmh 29.72 in1006.4 mb - 0.00 in0.0 mm 0.00 in0.0 mm
02:30 AM 48.7°F9.3°C 41.1°F5.1°C 75% 2.8 mph N4.5 kmh N 5.0 mph8.0 kmh 29.72 in1006.4 mb - 0.00 in0.0 mm 0.00 in0.0 mm
02:20 AM 48.7°F9.3°C 41.1°F5.1°C 75% 0.8 mph NW1.3 kmh NW 2.0 mph3.2 kmh 29.72 in1006.4 mb - 0.00 in0.0 mm 0.00 in0.0 mm
02:10 AM 48.7°F9.3°C 41.1°F5.1°C 75% 1.6 mph NNW2.6 kmh NNW 5.0 mph8.0 kmh 29.72 in1006.4 mb - 0.00 in0.0 mm 0.00 in0.0 mm
02:00 AM 48.8°F9.3°C 40.9°F4.9°C 74% 2.5 mph N4.0 kmh N 5.0 mph8.0 kmh 29.72 in1006.4 mb - 0.00 in0.0 mm 0.00 in0.0 mm
01:50 AM 48.9°F9.4°C 41.0°F5.0°C 74% 3.4 mph WSW5.5 kmh WSW 7.0 mph11.3 kmh 29.72 in1006.4 mb - 0.00 in0.0 mm 0.00 in0.0 mm
01:40 AM 49.1°F9.5°C 40.8°F4.9°C 73% 3.3 mph NE5.3 kmh NE 4.0 mph6.4 kmh 29.72 in1006.4 mb - 0.00 in0.0 mm 0.00 in0.0 mm
01:30 AM 49.1°F9.5°C 40.8°F4.9°C 73% 4.0 mph NW6.4 kmh NW 6.0 mph9.7 kmh 29.72 in1006.4 mb - 0.00 in0.0 mm 0.00 in0.0 mm
01:20 AM 49.1°F9.5°C 40.8°F4.9°C 73% 1.4 mph N2.3 kmh N 4.0 mph6.4 kmh 29.72 in1006.4 mb - 0.00 in0.0 mm 0.00 in0.0 mm
01:10 AM 49.0°F9.4°C 40.7°F4.8°C 73% 1.6 mph NE2.6 kmh NE 3.0 mph4.8 kmh 29.72 in1006.4 mb - 0.00 in0.0 mm 0.00 in0.0 mm
01:00 AM 49.0°F9.4°C 40.3°F4.6°C 72% 2.3 mph NNE3.7 kmh NNE 4.0 mph6.4 kmh 29.72 in1006.4 mb - 0.00 in0.0 mm 0.00 in0.0 mm
12:50 AM 49.0°F9.4°C 40.0°F4.4°C 71% 2.3 mph N3.7 kmh N 3.0 mph4.8 kmh 29.72 in1006.4 mb - 0.00 in0.0 mm 0.00 in0.0 mm
12:40 AM 49.2°F9.6°C 40.2°F4.6°C 71% 0.4 mph NE0.6 kmh NE 1.0 mph1.6 kmh 29.72 in1006.4 mb - 0.00 in0.0 mm 0.00 in0.0 mm
12:30 AM 49.3°F9.6°C 40.7°F4.8°C 72% 1.2 mph NW1.9 kmh NW 3.0 mph4.8 kmh 29.72 in1006.4 mb - 0.00 in0.0 mm 0.00 in0.0 mm
12:20 AM 49.3°F9.6°C 41.4°F5.2°C 74% 0.9 mph ENE1.4 kmh ENE 4.0 mph6.4 kmh 29.72 in1006.4 mb - 0.00 in0.0 mm 0.00 in0.0 mm
12:10 AM 49.3°F9.6°C 40.7°F4.8°C 72% 1.1 mph N1.8 kmh N 3.0 mph4.8 kmh 29.72 in1006.4 mb - 0.00 in0.0 mm 0.00 in0.0 mm
12:00 AM 49.3°F9.6°C 40.7°F4.8°C 72% 0.9 mph N1.4 kmh N 3.0 mph4.8 kmh 29.72 in1006.4 mb - 0.00 in0.0 mm 0.00 in0.0 mm